Latest Weather Observations for Longerenong

IDV60801

Issued at 8:32 pm EDT Thursday 23 February 2017 (issued every 30 minutes, with the page automatically refreshed every 10 minutes)

About weather observations | Map of weather stations | Latest weather observations for VIC | Other Formats
Station Details ID: 079028 Name: LONGERENONG Lat: -36.67 Lon: 142.30 Height: 133.0 m
Data from the previous 72 hours. | See also: Recent months at Longerenong
Date/Time
EDT
Temp
°C
App
Temp
°C
Dew
Point
°C
Rel
Hum
%
Delta-T
°C
Wind Press
QNH
hPa
Press
MSL
hPa
Rain since
9am
mm
Dir  Spd
km/h
Gust
km/h
Spd
kts
Gust
kts
23/08:30pm 21.3 19.1 10.8 51 5.8 SW 13 20 7 11 - - 0.0
23/08:00pm 22.9 20.0 11.0 47 6.6 SW 17 24 9 13 - - 0.0
23/07:30pm 24.3 20.7 10.6 42 7.6 SW 20 28 11 15 - - 0.0
23/07:00pm 24.8 21.1 10.3 40 8.1 SSW 20 28 11 15 - - 0.0
23/06:30pm 25.9 22.4 10.1 37 8.8 SW 19 26 10 14 - - 0.0
23/06:00pm 26.6 23.4 9.9 35 9.3 SW 17 26 9 14 - - 0.0
23/05:30pm 27.2 24.2 10.8 36 9.3 SW 17 26 9 14 - - 0.0
23/05:00pm 26.8 23.8 10.5 36 9.2 WSW 17 32 9 17 - - 0.0
23/04:30pm 26.9 23.9 10.6 36 9.2 WSW 17 24 9 13 - - 0.0
23/04:00pm 25.8 23.1 10.4 38 8.6 WSW 15 26 8 14 - - 0.0
23/03:30pm 25.7 23.6 11.1 40 8.3 WSW 13 30 7 16 - - 0.0
23/03:00pm 25.3 23.3 11.5 42 7.9 WSW 13 26 7 14 - - 0.0
23/02:30pm 25.3 23.3 11.5 42 7.9 W 13 30 7 16 - - 0.0
23/02:00pm 23.6 20.9 11.6 47 6.8 WSW 17 28 9 15 - - 0.0
23/01:30pm 23.0 20.3 11.7 49 6.4 WSW 17 26 9 14 - - 0.0
23/01:00pm 22.6 20.0 12.0 51 6.0 WSW 17 32 9 17 - - 0.0
23/12:30pm 22.0 19.0 12.0 53 5.7 WSW 19 26 10 14 - - 0.0
23/12:00pm 21.6 18.7 12.2 55 5.3 SW 19 28 10 15 - - 0.0
23/11:30am 21.8 19.3 12.4 55 5.3 SSW 17 28 9 15 - - 0.0
23/11:00am 19.8 16.7 12.1 61 4.3 SW 20 26 11 14 - - 0.0
23/10:30am 19.4 16.3 12.2 63 4.0 SSW 20 30 11 16 - - 0.0
23/10:00am 19.2 16.1 12.2 64 3.9 SW 20 26 11 14 - - 0.0
23/09:30am 18.3 15.3 12.5 69 3.2 SW 20 30 11 16 - - 0.0
23/09:00am 18.0 13.7 12.2 69 3.2 WSW 26 35 14 19 - - 0.0
23/08:30am 17.4 14.0 12.5 73 2.7 WSW 22 32 12 17 - - 0.0
23/08:00am 17.0 15.7 12.5 75 2.5 WSW 11 17 6 9 - - 0.0
23/07:30am 16.8 14.0 12.5 76 2.4 WSW 19 24 10 13 - - 0.0
23/07:00am 15.8 14.8 12.4 80 1.9 W 9 13 5 7 - - 0.0
23/06:30am 14.7 14.1 11.7 82 1.6 WNW 6 7 3 4 - - 0.0
23/06:00am 14.0 13.1 11.2 83 1.5 NNW 7 9 4 5 - - 0.0
23/05:30am 13.0 11.8 10.4 84 1.4 NW 7 7 4 4 - - 0.0
23/05:00am 13.1 11.9 9.7 80 1.8 NW 6 7 3 4 - - 0.0
23/04:30am 13.8 12.7 9.8 77 2.1 WNW 6 7 3 4 - - 0.0
23/04:00am 13.7 11.9 9.6 76 2.1 NW 9 11 5 6 - - 0.0
23/03:30am 12.8 11.4 8.9 77 2.0 NW 6 6 3 3 - - 0.0
23/03:00am 13.3 11.8 8.4 72 2.5 WNW 6 7 3 4 - - 0.0
23/02:30am 15.5 13.4 9.8 69 3.0 W 11 15 6 8 - - 0.0
23/02:00am 16.0 13.5 9.7 66 3.3 W 13 19 7 10 - - 0.0
23/01:30am 16.9 13.9 9.3 61 4.0 W 15 20 8 11 - - 0.0
23/01:00am 17.4 13.7 9.3 59 4.3 W 19 24 10 13 - - 0.0
23/12:30am 18.1 14.3 8.9 55 4.8 W 19 26 10 14 - - 0.0
23/12:00am 18.4 14.3 8.7 53 5.1 W 20 30 11 16 - - 0.0
 
Date/Time
EDT
Temp
°C
App
Temp
°C
Dew
Point
°C
Rel
Hum
%
Delta-T
°C
Wind Press
QNH
hPa
Press
MSL
hPa
Rain since
9am
mm
Dir  Spd
km/h
Gust
km/h
Spd
kts
Gust
kts
22/11:30pm 18.9 14.6 8.0 49 5.6 W 20 28 11 15 - - 0.0
22/11:00pm 19.9 14.9 7.9 46 6.2 W 24 33 13 18 - - 0.0
22/10:30pm 20.9 14.5 6.8 40 7.2 WSW 30 44 16 24 - - 0.0
22/10:00pm 21.8 14.6 6.1 36 8.0 W 33 46 18 25 - - 0.0
22/09:30pm 22.2 15.9 5.6 34 8.4 WSW 28 37 15 20 - - 0.0
22/09:00pm 22.5 15.2 5.4 33 8.6 W 33 43 18 23 - - 0.0
22/08:30pm 23.7 16.0 6.9 34 8.8 W 37 48 20 26 - - 0.0
22/08:06pm 25.5 19.1 9.3 36 8.9 WSW 33 54 18 29 - - 0.0
22/08:00pm 25.9 19.1 9.3 35 9.1 WSW 35 48 19 26 - - 0.0
22/07:36pm 28.1 21.1 8.4 29 10.8 W 35 57 19 31 - - 0.0
22/07:30pm 28.5 21.2 8.7 29 10.9 W 37 52 20 28 - - 0.0
22/07:09pm 31.2 24.0 7.6 23 13.0 W 35 54 19 29 - - 0.0
22/07:00pm 32.4 25.5 7.3 21 13.8 W 33 44 18 24 - - 0.0
22/06:30pm 35.4 27.2 -0.8 10 17.8 NNW 32 44 17 24 - - 0.0
22/06:13pm 35.3 26.5 -0.9 10 17.8 N 35 59 19 32 - - 0.0
22/06:00pm 35.4 27.0 -0.8 10 17.8 NNW 33 52 18 28 - - 0.0
22/05:49pm 35.4 26.7 -0.8 10 17.8 NNW 35 56 19 30 - - 0.0
22/05:30pm 35.8 27.5 -2.0 9 18.3 NNW 32 43 17 23 - - 0.0
22/05:12pm 35.4 27.2 -0.8 10 17.8 NNW 32 50 17 27 - - 0.0
22/05:00pm 35.5 26.9 -2.2 9 18.1 NNW 33 50 18 27 - - 0.0
22/04:38pm 35.7 27.4 -0.6 10 17.9 NNW 33 52 18 28 - - 0.0
22/04:30pm 35.6 26.5 -0.7 10 17.9 N 37 48 20 26 - - 0.0
22/04:12pm 35.0 26.6 -1.1 10 17.6 NNW 33 54 18 29 - - 0.0
22/04:00pm 35.5 26.8 -0.8 10 17.9 N 35 52 19 28 - - 0.0
22/03:30pm 34.7 25.9 -1.4 10 17.5 NNW 35 54 19 29 - - 0.0
22/03:03pm 34.5 24.9 -1.5 10 17.4 NNW 39 59 21 32 - - 0.0
22/03:00pm 34.3 25.2 -0.4 11 17.0 NNW 37 54 20 29 - - 0.0
22/02:33pm 34.4 26.3 -0.3 11 17.1 NNW 32 50 17 27 - - 0.0
22/02:30pm 33.5 24.7 -1.0 11 16.7 N 35 50 19 27 - - 0.0
22/02:00pm 34.0 25.9 -0.6 11 16.9 NNW 32 46 17 25 - - 0.0
22/01:30pm 33.5 25.1 -1.0 11 16.7 N 33 57 18 31 - - 0.0
22/01:00pm 32.0 24.0 0.2 13 15.5 N 32 52 17 28 - - 0.0
22/12:30pm 30.8 22.8 0.2 14 14.8 N 32 52 17 28 - - 0.0
22/12:19pm 31.0 23.4 0.4 14 14.9 N 30 50 16 27 - - 0.0
22/12:00pm 29.4 21.9 1.0 16 13.8 NNE 30 46 16 25 - - 0.0
22/11:30am 28.7 21.3 2.1 18 13.1 NNE 30 54 16 29 - - 0.0
22/11:17am 27.6 20.6 1.9 19 12.6 NNE 28 48 15 26 - - 0.0
22/11:00am 26.9 19.6 2.7 21 11.9 NNE 30 46 16 25 - - 0.0
22/10:30am 26.3 20.3 3.5 23 11.4 NNE 24 39 13 21 - - 0.0
22/10:00am 23.9 18.6 3.2 26 10.1 NNE 20 35 11 19 - - 0.0
22/09:30am 21.9 16.3 3.6 30 8.9 NNE 22 35 12 19 - - 0.0
22/09:00am 19.6 14.6 3.7 35 7.6 NE 19 30 10 16 - - 0.0
22/08:30am 16.7 12.6 4.4 44 5.8 NE 15 24 8 13 - - 0.0
22/08:00am 14.7 11.4 4.4 50 4.8 NE 11 15 6 8 - - 0.0
22/07:30am 14.1 10.3 4.1 51 4.6 NE 13 20 7 11 - - 0.0
22/07:00am 13.1 8.9 4.0 54 4.2 ENE 15 22 8 12 - - 0.0
22/06:30am 13.1 9.3 3.7 53 4.3 ENE 13 20 7 11 - - 0.0
22/06:00am 13.1 9.6 3.5 52 4.3 ENE 11 17 6 9 - - 0.0
22/05:30am 13.8 9.9 3.6 50 4.6 ENE 13 20 7 11 - - 0.0
22/05:00am 14.0 10.9 3.8 50 4.7 NE 9 17 5 9 - - 0.0
22/04:30am 14.0 10.2 3.8 50 4.7 ENE 13 20 7 11 - - 0.0
22/04:00am 14.2 11.1 3.4 48 4.9 ENE 9 15 5 8 - - 0.0
22/03:30am 14.8 11.3 3.6 47 5.1 ENE 11 17 6 9 - - 0.0
22/03:00am 15.6 11.7 3.4 44 5.6 NE 13 20 7 11 - - 0.0
22/02:30am 15.7 12.1 3.2 43 5.7 NE 11 19 6 10 - - 0.0
22/02:00am 15.6 12.0 2.7 42 5.8 ENE 11 17 6 9 - - 0.0
22/01:30am 16.0 12.7 2.4 40 6.1 ENE 9 15 5 8 - - 0.0
22/01:00am 16.6 12.9 2.2 38 6.5 ENE 11 17 6 9 - - 0.0
22/12:30am 16.9 13.5 1.8 36 6.8 ENE 9 15 5 8 - - 0.0
22/12:00am 17.4 13.7 2.2 36 6.9 ENE 11 15 6 8 - - 0.0
 
Date/Time
EDT
Temp
°C
App
Temp
°C
Dew
Point
°C
Rel
Hum
%
Delta-T
°C
Wind Press
QNH
hPa
Press
MSL
hPa
Rain since
9am
mm
Dir  Spd
km/h
Gust
km/h
Spd
kts
Gust
kts
21/11:30pm 17.6 14.6 2.0 35 7.1 NE 7 11 4 6 - - 0.0
21/11:00pm 17.8 14.3 1.3 33 7.4 NE 9 13 5 7 - - 0.0
21/10:30pm 18.4 15.3 1.4 32 7.7 ENE 7 9 4 5 - - 0.0
21/10:00pm 17.7 14.7 2.1 35 7.1 ENE 7 9 4 5 - - 0.0
21/09:30pm 20.3 17.5 2.2 30 8.4 NE 6 7 3 4 - - 0.0
21/09:00pm 20.9 18.4 1.7 28 8.9 NE 4 6 2 3 - - 0.0
21/08:30pm 22.6 19.7 1.6 25 9.8 NE 6 6 3 3 - - 0.0
21/08:00pm 24.8 21.8 1.7 22 11.0 NNE 7 11 4 6 - - 0.0
21/07:30pm 25.8 22.4 1.8 21 11.6 NNE 9 17 5 9 - - 0.0
21/07:00pm 26.0 22.5 1.3 20 11.8 NNE 9 13 5 7 - - 0.0
21/06:30pm 26.7 23.7 1.9 20 12.0 NNE 7 15 4 8 - - 0.0
21/06:00pm 26.7 23.2 1.2 19 12.2 N 9 17 5 9 - - 0.0
21/05:30pm 26.7 23.6 1.2 19 12.2 N 7 19 4 10 - - 0.0
21/05:00pm 26.2 23.7 1.5 20 11.9 NE 4 9 2 5 - - 0.0
21/04:30pm 26.2 22.4 1.5 20 11.9 NNE 11 17 6 9 - - 0.0
21/04:00pm 26.2 22.9 2.2 21 11.7 N 9 19 5 10 - - 0.0
21/03:30pm 25.8 22.4 1.8 21 11.6 NNW 9 20 5 11 - - 0.0
21/03:00pm 24.7 21.5 2.8 24 10.7 NNW 9 17 5 9 - - 0.0
21/02:30pm 24.3 21.6 3.6 26 10.2 NE 7 17 4 9 - - 0.0
21/02:00pm 23.9 21.5 4.3 28 9.8 NW 6 17 3 9 - - 0.0
21/01:30pm 23.5 20.5 4.0 28 9.6 NE 9 17 5 9 - - 0.0
21/01:00pm 22.0 19.5 5.0 33 8.5 NNW 7 17 4 9 - - 0.0
21/12:30pm 21.1 18.8 5.5 36 7.8 N 7 20 4 11 - - 0.0
21/12:00pm 20.4 18.2 5.2 37 7.5 NE 6 13 3 7 - - 0.0
21/11:30am 18.9 16.1 5.0 40 6.8 NE 9 17 5 9 - - 0.0
21/11:00am 18.9 16.7 6.4 44 6.3 NE 7 17 4 9 - - 0.0
21/10:30am 17.4 14.9 6.6 49 5.4 ENE 9 15 5 8 - - 0.0
21/10:00am 16.2 13.5 7.2 55 4.5 E 11 17 6 9 - - 0.0
21/09:30am 15.1 12.2 8.3 64 3.4 ESE 13 15 7 8 - - 0.0
21/09:00am 13.4 11.1 8.9 74 2.3 E 11 13 6 7 - - 0.0
21/08:30am 10.9 8.8 8.3 84 1.3 E 9 13 5 7 - - 0.0
21/08:00am 9.2 7.3 7.6 90 0.8 ENE 7 9 4 5 - - 0.0
21/07:30am 7.8 5.7 6.7 93 0.5 E 7 9 4 5 - - 0.0
21/07:00am 7.3 5.1 6.4 94 0.4 ESE 7 9 4 5 - - 0.0
21/06:30am 5.6 3.6 4.6 93 0.4 E 4 6 2 3 - - 0.0
21/06:00am 6.2 3.9 4.8 91 0.6 E 6 6 3 3 - - 0.0
21/05:30am 7.6 5.6 6.1 90 0.7 E 6 7 3 4 - - 0.0
21/05:00am 7.9 6.0 6.5 91 0.6 E 6 7 3 4 - - 0.0
21/04:30am 6.6 4.7 5.1 90 0.7 E 4 4 2 2 - - 0.0
21/04:00am 7.7 5.5 5.5 86 1.0 E 6 7 3 4 - - 0.0
21/03:30am 8.6 6.6 6.1 84 1.2 ESE 6 6 3 3 - - 0.0
21/03:00am 8.4 6.4 6.2 86 1.0 SE 6 7 3 4 - - 0.0
21/02:30am 6.2 3.5 2.8 79 1.4 SSE 6 6 3 3 - - 0.0
21/02:00am 8.6 6.7 5.0 78 1.6 SE 4 6 2 3 - - 0.0
21/01:30am 9.2 7.4 5.4 77 1.7 SE 4 6 2 3 - - 0.0
21/01:00am 9.8 7.4 5.2 73 2.1 SE 7 7 4 4 - - 0.0
21/12:30am 10.3 8.0 5.5 72 2.2 ESE 7 7 4 4 - - 0.0
21/12:00am 11.1 9.0 5.8 70 2.5 SE 6 7 3 4 - - 0.0
 
Date/Time
EDT
Temp
°C
App
Temp
°C
Dew
Point
°C
Rel
Hum
%
Delta-T
°C
Wind Press
QNH
hPa
Press
MSL
hPa
Rain since
9am
mm
Dir  Spd
km/h
Gust
km/h
Spd
kts
Gust
kts
20/11:30pm 10.6 8.4 5.2 69 2.5 SE 6 6 3 3 - - 0.0
20/11:00pm 11.4 9.1 5.5 67 2.7 SSE 7 13 4 7 - - 0.0
20/10:30pm 11.7 9.3 5.1 64 3.0 S 7 11 4 6 - - 0.0
20/10:00pm 12.5 9.7 5.0 60 3.5 S 9 13 5 7 - - 0.0
20/09:30pm 13.3 9.9 4.2 54 4.2 SSW 11 13 6 7 - - 0.0
20/09:00pm 14.9 11.6 4.3 49 4.9 S 11 13 6 7 - - 0.0

Other Formats:

Comma delimited format used in spreadsheet applications
http://www.bom.gov.au/fwo/IDV60801/IDV60801.95835.axf

JavaScript Object Notation format (JSON) in row-major order
http://www.bom.gov.au/fwo/IDV60801/IDV60801.95835.json